createdAt,value
2022-12-25T00:00:20.718Z,3.17
2022-12-25T00:02:49.531Z,3.11
2022-12-25T00:05:17.945Z,3.14
2022-12-25T00:07:46.127Z,3.12
2022-12-25T00:10:14.219Z,3.05
2022-12-25T00:12:42.456Z,2.92
2022-12-25T00:15:10.841Z,2.75
2022-12-25T00:17:38.795Z,2.61
2022-12-25T00:20:07.471Z,2.59
2022-12-25T00:22:35.770Z,2.65
2022-12-25T00:25:04.275Z,2.33
2022-12-25T00:27:34.213Z,2.21
2022-12-25T00:30:02.397Z,2.31
2022-12-25T00:32:30.298Z,2.07
2022-12-25T00:34:58.502Z,2.19
2022-12-25T00:37:26.318Z,1.98
2022-12-25T00:39:54.276Z,2.00
2022-12-25T00:42:23.995Z,2.21
2022-12-25T00:44:52.157Z,2.20
2022-12-25T00:47:20.050Z,2.18
2022-12-25T00:49:48.285Z,2.12
2022-12-25T00:52:16.275Z,2.02
2022-12-25T00:54:44.139Z,1.86
2022-12-25T00:57:12.198Z,2.13
2022-12-25T00:59:40.286Z,1.89
2022-12-25T01:02:23.761Z,1.87
2022-12-25T01:04:57.252Z,2.01
2022-12-25T01:07:26.902Z,2.16
2022-12-25T01:10:13.411Z,2.23
2022-12-25T01:12:43.075Z,2.24
2022-12-25T01:15:12.215Z,2.19
2022-12-25T01:17:40.417Z,2.22
2022-12-25T01:20:09.547Z,2.39
2022-12-25T01:22:37.592Z,2.29
2022-12-25T01:25:06.742Z,2.20
2022-12-25T01:27:35.456Z,2.36
2022-12-25T01:30:04.269Z,2.22
2022-12-25T01:32:32.297Z,2.19
2022-12-25T01:35:00.210Z,2.30
2022-12-25T01:37:28.256Z,2.35
2022-12-25T01:39:56.064Z,2.40
2022-12-25T01:42:24.304Z,2.50
2022-12-25T01:44:52.207Z,2.51
2022-12-25T01:47:20.125Z,2.69
2022-12-25T01:49:50.958Z,2.85
2022-12-25T01:52:25.544Z,3.32
2022-12-25T01:54:59.694Z,3.49
2022-12-25T01:57:32.056Z,3.65
2022-12-25T02:00:01.800Z,3.77
2022-12-25T02:02:33.467Z,3.86
2022-12-25T02:05:08.371Z,3.97
2022-12-25T02:07:38.650Z,4.04
2022-12-25T02:10:07.938Z,4.04
2022-12-25T02:12:36.830Z,4.14
2022-12-25T02:15:11.978Z,4.25
2022-12-25T02:18:07.917Z,4.29
2022-12-25T02:21:10.987Z,4.43
2022-12-25T02:24:01.613Z,4.48
2022-12-25T02:26:55.755Z,4.59
2022-12-25T02:29:33.631Z,4.61
2022-12-25T02:32:35.222Z,4.73
2022-12-25T02:35:13.012Z,4.73
2022-12-25T02:38:08.625Z,4.87
2022-12-25T02:40:51.552Z,4.79
2022-12-25T02:43:50.393Z,4.77
2022-12-25T02:46:40.664Z,4.73
2022-12-25T02:49:47.065Z,4.76
2022-12-25T02:52:38.237Z,4.72
2022-12-25T02:55:38.763Z,4.65
2022-12-25T03:00:37.041Z,4.49
2022-12-25T03:03:27.835Z,4.41
2022-12-25T03:06:18.786Z,4.39
2022-12-25T03:08:50.492Z,4.27
2022-12-25T03:11:34.072Z,4.24
2022-12-25T03:14:24.756Z,4.00
2022-12-25T03:16:56.710Z,4.00
2022-12-25T03:19:50.478Z,3.93
2022-12-25T03:22:47.204Z,3.87
2022-12-25T03:25:34.828Z,3.83
2022-12-25T03:28:04.083Z,3.79
2022-12-25T03:31:08.922Z,3.72
2022-12-25T03:34:17.327Z,3.45
2022-12-25T03:37:18.361Z,3.50
2022-12-25T03:40:27.891Z,3.53
2022-12-25T03:44:03.188Z,3.47
2022-12-25T03:46:54.770Z,3.36
2022-12-25T03:49:49.335Z,3.19
2022-12-25T03:52:39.604Z,3.23
2022-12-25T03:55:30.206Z,2.71
2022-12-25T03:58:16.822Z,2.68
2022-12-25T04:01:03.580Z,2.82
2022-12-25T04:03:51.088Z,2.77
2022-12-25T04:06:37.809Z,2.65
2022-12-25T04:09:31.727Z,2.80
2022-12-25T04:12:18.032Z,2.85
2022-12-25T04:15:04.241Z,2.80
2022-12-25T04:17:50.867Z,2.63
2022-12-25T04:20:37.394Z,2.77
2022-12-25T04:23:24.105Z,2.71
2022-12-25T04:26:10.758Z,2.77
2022-12-25T04:28:57.368Z,2.59
2022-12-25T04:31:43.701Z,2.71
2022-12-25T04:34:30.446Z,2.61
2022-12-25T04:36:58.396Z,2.68
2022-12-25T04:39:26.256Z,2.60
2022-12-25T04:41:54.206Z,2.30
2022-12-25T04:44:22.113Z,2.42
2022-12-25T04:46:50.339Z,2.31
2022-12-25T04:49:18.831Z,2.23
2022-12-25T04:51:46.659Z,2.31
2022-12-25T04:54:14.734Z,2.34
2022-12-25T04:56:45.810Z,2.34
2022-12-25T04:59:14.268Z,2.09
2022-12-25T05:01:42.183Z,2.23
2022-12-25T05:04:10.191Z,2.02
2022-12-25T05:06:38.168Z,2.04
2022-12-25T05:09:06.851Z,1.79
2022-12-25T05:11:35.073Z,1.96
2022-12-25T05:14:02.989Z,1.81
2022-12-25T05:16:31.111Z,1.76
2022-12-25T05:18:59.187Z,1.76
2022-12-25T05:21:27.236Z,1.76
2022-12-25T05:23:55.097Z,1.56
2022-12-25T05:26:25.914Z,1.68
2022-12-25T05:28:55.153Z,1.56
2022-12-25T05:31:23.559Z,1.60
2022-12-25T05:33:52.788Z,1.66
2022-12-25T05:36:20.788Z,1.72
2022-12-25T05:38:48.913Z,1.80
2022-12-25T05:41:17.042Z,1.87
2022-12-25T05:43:45.213Z,1.87
2022-12-25T05:46:14.220Z,1.89
2022-12-25T05:48:42.181Z,1.94
2022-12-25T05:51:12.364Z,1.92
2022-12-25T05:53:41.975Z,1.79
2022-12-25T05:56:10.511Z,1.71
2022-12-25T05:58:39.976Z,1.64
2022-12-25T06:01:14.026Z,1.69
2022-12-25T06:03:42.187Z,1.67
2022-12-25T06:06:11.170Z,1.73
2022-12-25T06:08:39.138Z,1.64
2022-12-25T06:11:08.097Z,1.61
2022-12-25T06:13:36.822Z,1.75
2022-12-25T06:16:10.258Z,1.58
2022-12-25T06:18:44.368Z,1.64
2022-12-25T06:21:14.720Z,1.66
2022-12-25T06:23:42.999Z,1.60
2022-12-25T06:26:14.679Z,1.57
2022-12-25T06:28:42.657Z,1.62
2022-12-25T06:31:14.739Z,1.60
2022-12-25T06:33:43.719Z,1.73
2022-12-25T06:36:17.532Z,1.78
2022-12-25T06:38:45.560Z,1.75
2022-12-25T06:41:16.616Z,1.82
2022-12-25T06:43:52.094Z,1.93
2022-12-25T06:46:21.051Z,1.87
2022-12-25T06:48:50.160Z,1.90
2022-12-25T06:51:26.631Z,1.97
2022-12-25T06:53:55.842Z,1.80
2022-12-25T06:56:27.147Z,1.92
2022-12-25T06:58:57.348Z,2.04
2022-12-25T07:01:34.884Z,2.14
2022-12-25T07:04:07.887Z,2.09
2022-12-25T07:06:36.200Z,2.21
2022-12-25T07:09:04.326Z,2.46
2022-12-25T07:11:32.329Z,2.66
2022-12-25T07:14:00.273Z,2.66
2022-12-25T07:16:28.287Z,2.82
2022-12-25T07:18:56.280Z,2.99
2022-12-25T07:21:24.519Z,2.93
2022-12-25T07:23:52.754Z,3.02
2022-12-25T07:26:21.211Z,3.22
2022-12-25T07:28:49.091Z,3.56
2022-12-25T07:31:18.566Z,3.60
2022-12-25T07:33:47.108Z,3.76
2022-12-25T07:36:15.826Z,3.88
2022-12-25T07:38:45.046Z,4.19
2022-12-25T07:41:13.490Z,4.55
2022-12-25T07:43:41.715Z,5.11
2022-12-25T07:46:10.174Z,6.41
2022-12-25T07:48:38.250Z,7.94
2022-12-25T07:51:10.530Z,8.61
2022-12-25T07:53:39.667Z,8.65
2022-12-25T07:56:15.315Z,8.57
2022-12-25T07:58:43.765Z,9.16
2022-12-25T08:01:18.320Z,8.69
2022-12-25T08:03:55.358Z,8.72
2022-12-25T08:06:30.120Z,8.49
2022-12-25T08:09:07.487Z,8.20
2022-12-25T08:11:37.588Z,8.13
2022-12-25T08:14:08.021Z,8.01
2022-12-25T08:16:41.875Z,7.95
2022-12-25T08:19:10.630Z,7.89
2022-12-25T08:21:39.188Z,7.81
2022-12-25T08:24:07.886Z,7.98
2022-12-25T08:26:36.714Z,8.53
2022-12-25T08:39:05.741Z,8.34
2022-12-25T08:41:36.952Z,8.77
2022-12-25T08:44:06.678Z,9.21
2022-12-25T08:46:37.154Z,9.48
2022-12-25T08:49:06.276Z,9.51
2022-12-25T08:51:34.801Z,9.82
2022-12-25T08:54:05.701Z,10.10
2022-12-25T08:56:34.143Z,10.47
2022-12-25T08:59:03.697Z,10.56
2022-12-25T09:01:32.435Z,10.89
2022-12-25T09:04:00.869Z,11.24
2022-12-25T09:06:29.540Z,11.84
2022-12-25T09:08:57.776Z,12.24
2022-12-25T09:11:26.299Z,12.31
2022-12-25T09:13:54.920Z,12.64
2022-12-25T09:16:23.902Z,13.14
2022-12-25T09:18:52.711Z,13.73
2022-12-25T09:21:21.183Z,14.27
2022-12-25T09:23:49.839Z,15.31
2022-12-25T09:26:19.538Z,15.70
2022-12-25T09:28:51.933Z,16.42
2022-12-25T09:31:22.687Z,16.75
2022-12-25T09:33:52.207Z,17.89
2022-12-25T09:36:23.789Z,17.73
2022-12-25T09:38:53.109Z,18.25
2022-12-25T09:41:30.608Z,18.59
2022-12-25T09:44:13.894Z,19.11
2022-12-25T09:46:53.811Z,19.44
2022-12-25T09:49:39.477Z,19.28
2022-12-25T09:52:31.297Z,19.75
2022-12-25T09:55:17.917Z,20.41
2022-12-25T09:57:52.964Z,21.08
2022-12-25T10:00:23.831Z,20.07
2022-12-25T10:03:04.208Z,20.15
2022-12-25T10:06:10.110Z,20.02
2022-12-25T10:08:48.110Z,19.85
2022-12-25T10:11:31.333Z,22.07
2022-12-25T10:14:25.139Z,20.96
2022-12-25T10:17:17.274Z,21.12
2022-12-25T10:19:56.077Z,20.43
2022-12-25T10:22:29.381Z,20.88
2022-12-25T10:25:00.475Z,20.73
2022-12-25T10:27:41.308Z,21.24
2022-12-25T10:30:17.071Z,21.21
2022-12-25T10:32:46.939Z,21.00
2022-12-25T10:35:18.914Z,20.71
2022-12-25T10:37:56.030Z,22.09
2022-12-25T10:40:24.409Z,23.63
2022-12-25T10:43:01.825Z,23.91
2022-12-25T10:45:30.297Z,24.49
2022-12-25T10:48:07.894Z,25.48
2022-12-25T10:50:43.738Z,26.88
2022-12-25T10:53:23.437Z,27.73
2022-12-25T10:56:06.812Z,27.68
2022-12-25T10:58:35.247Z,26.46
2022-12-25T11:01:06.845Z,26.52
2022-12-25T11:03:39.375Z,27.06
2022-12-25T11:06:22.455Z,27.14
2022-12-25T11:09:01.715Z,26.22
2022-12-25T11:11:31.352Z,26.59
2022-12-25T11:14:02.624Z,25.99
2022-12-25T11:16:38.629Z,27.21
2022-12-25T11:19:29.463Z,26.31
2022-12-25T11:22:00.657Z,27.12
2022-12-25T11:24:32.742Z,26.54
2022-12-25T11:27:04.910Z,25.92
2022-12-25T11:29:49.390Z,24.89
2022-12-25T11:32:23.886Z,23.40
2022-12-25T11:34:53.587Z,24.58
2022-12-25T11:37:33.852Z,24.61
2022-12-25T11:40:02.759Z,23.95
2022-12-25T11:42:47.936Z,24.03
2022-12-25T11:45:21.201Z,24.38
2022-12-25T11:48:09.496Z,25.17
2022-12-25T11:50:53.706Z,25.68
2022-12-25T11:53:54.646Z,25.00
2022-12-25T11:56:26.536Z,25.31
2022-12-25T11:59:01.114Z,24.80
2022-12-25T12:01:37.565Z,25.25
2022-12-25T12:04:20.190Z,25.40
2022-12-25T12:07:15.225Z,24.72
2022-12-25T12:10:05.393Z,24.17
2022-12-25T12:12:46.807Z,23.18
2022-12-25T12:15:36.264Z,22.72
2022-12-25T12:18:10.874Z,22.57
2022-12-25T12:20:39.383Z,21.22
2022-12-25T12:23:16.116Z,20.75
2022-12-25T12:25:46.169Z,19.96
2022-12-25T12:28:23.032Z,19.22
2022-12-25T12:31:05.186Z,19.02
2022-12-25T12:33:51.133Z,18.87
2022-12-25T12:36:34.462Z,17.86
2022-12-25T12:39:06.345Z,17.46
2022-12-25T12:41:45.066Z,16.69
2022-12-25T12:44:15.046Z,16.91
2022-12-25T12:46:57.938Z,15.90
2022-12-25T12:49:33.188Z,15.40
2022-12-25T12:52:26.650Z,15.03
2022-12-25T12:55:05.237Z,14.23
2022-12-25T12:57:41.831Z,13.94
2022-12-25T13:00:52.881Z,13.42
2022-12-25T13:04:05.505Z,13.10
2022-12-25T13:06:51.618Z,12.62
2022-12-25T13:09:44.601Z,12.59
2022-12-25T13:12:15.468Z,12.20
2022-12-25T13:14:46.586Z,12.03
2022-12-25T13:17:26.454Z,11.77
2022-12-25T13:20:00.061Z,11.57
2022-12-25T13:22:34.920Z,11.66
2022-12-25T13:25:09.303Z,11.52
2022-12-25T13:27:37.752Z,11.51
2022-12-25T13:30:20.077Z,11.33
2022-12-25T13:32:49.691Z,11.36
2022-12-25T13:35:21.586Z,11.13
2022-12-25T13:37:50.901Z,11.12
2022-12-25T13:40:28.132Z,11.08
2022-12-25T13:43:00.840Z,11.06
2022-12-25T13:45:31.440Z,10.99
2022-12-25T13:48:16.330Z,10.96
2022-12-25T13:50:48.825Z,10.93
2022-12-25T13:53:18.530Z,10.81
2022-12-25T13:55:52.984Z,10.79
2022-12-25T13:58:31.112Z,10.81
2022-12-25T14:01:01.977Z,10.88
2022-12-25T14:03:46.004Z,10.74
2022-12-25T14:06:21.278Z,10.65
2022-12-25T14:08:50.315Z,10.68
2022-12-25T14:11:22.604Z,10.71
2022-12-25T14:13:57.142Z,10.77
2022-12-25T14:16:27.236Z,10.69
2022-12-25T14:18:59.165Z,10.76
2022-12-25T14:21:33.747Z,10.81
2022-12-25T14:24:02.552Z,10.77
2022-12-25T14:26:34.696Z,10.75
2022-12-25T14:29:11.185Z,10.71
2022-12-25T14:31:47.292Z,10.71
2022-12-25T14:34:23.141Z,10.63
2022-12-25T14:36:53.303Z,10.52
2022-12-25T14:39:40.214Z,10.49
2022-12-25T14:42:24.263Z,10.35
2022-12-25T14:45:26.508Z,10.25
2022-12-25T14:48:21.175Z,10.16
2022-12-25T14:51:32.979Z,9.97
2022-12-25T14:54:04.443Z,9.75
2022-12-25T14:56:39.608Z,9.71
2022-12-25T14:59:21.468Z,9.27
2022-12-25T15:01:55.228Z,9.25
2022-12-25T15:04:24.552Z,9.17
2022-12-25T15:07:01.956Z,9.06
2022-12-25T15:09:31.067Z,9.03
2022-12-25T15:11:59.703Z,8.87
2022-12-25T15:14:28.298Z,8.91
2022-12-25T15:16:59.383Z,8.82
2022-12-25T15:19:36.936Z,8.68
2022-12-25T15:22:06.985Z,8.52
2022-12-25T15:24:35.568Z,8.54
2022-12-25T15:27:05.747Z,8.33
2022-12-25T15:32:24.641Z,8.15
2022-12-25T15:34:54.321Z,8.07
2022-12-25T15:37:23.112Z,7.97
2022-12-25T15:39:51.667Z,7.84
2022-12-25T15:42:25.269Z,7.87
2022-12-25T15:44:54.460Z,7.77
2022-12-25T15:47:23.349Z,7.69
2022-12-25T15:49:52.004Z,7.64
2022-12-25T15:52:20.573Z,7.56
2022-12-25T15:54:49.176Z,7.41
2022-12-25T15:57:21.593Z,7.28
2022-12-25T15:59:50.134Z,7.32
2022-12-25T16:02:21.157Z,7.11
2022-12-25T16:04:51.384Z,7.08
2022-12-25T16:07:23.881Z,7.00
2022-12-25T16:09:53.197Z,6.92
2022-12-25T16:12:21.892Z,6.91
2022-12-25T16:14:50.455Z,6.81
2022-12-25T16:17:19.112Z,6.69
2022-12-25T16:19:47.524Z,6.62
2022-12-25T16:22:25.967Z,6.57
2022-12-25T16:24:55.146Z,6.36
2022-12-25T16:27:23.394Z,6.11
2022-12-25T16:29:52.583Z,6.11
2022-12-25T16:32:20.974Z,6.06
2022-12-25T16:34:49.695Z,6.00
2022-12-25T16:37:18.438Z,5.96
2022-12-25T16:39:46.991Z,5.89
2022-12-25T16:42:15.748Z,5.73
2022-12-25T16:44:44.374Z,5.88
2022-12-25T16:47:12.863Z,5.84
2022-12-25T16:49:41.320Z,5.82
2022-12-25T16:52:09.900Z,5.67
2022-12-25T16:54:38.280Z,5.62
2022-12-25T16:57:06.589Z,5.51
2022-12-25T16:59:36.307Z,5.33
2022-12-25T17:02:04.966Z,5.22
2022-12-25T17:04:33.697Z,5.11
2022-12-25T17:07:02.211Z,5.20
2022-12-25T17:09:31.552Z,5.18
2022-12-25T17:12:00.102Z,5.16
2022-12-25T17:14:28.722Z,4.96
2022-12-25T17:16:57.110Z,4.98
2022-12-25T17:19:25.903Z,4.90
2022-12-25T17:22:00.015Z,4.70
2022-12-25T17:24:30.288Z,4.70
2022-12-25T17:26:58.851Z,4.85
2022-12-25T17:29:27.430Z,4.87
2022-12-25T17:31:56.208Z,4.80
2022-12-25T17:34:24.707Z,4.62
2022-12-25T17:36:54.920Z,4.58
2022-12-25T17:39:23.387Z,4.56
2022-12-25T17:41:55.794Z,4.54
2022-12-25T17:44:24.429Z,4.53
2022-12-25T17:46:52.966Z,4.29
2022-12-25T17:49:22.762Z,4.21
2022-12-25T17:51:51.317Z,4.05
2022-12-25T17:54:19.928Z,4.10
2022-12-25T17:56:49.657Z,4.03
2022-12-25T17:59:23.568Z,4.11
2022-12-25T18:01:52.171Z,4.14
2022-12-25T18:04:21.188Z,4.16
2022-12-25T18:06:49.558Z,3.62
2022-12-25T18:09:19.168Z,3.65
2022-12-25T18:11:48.728Z,3.59
2022-12-25T18:14:18.131Z,3.68
2022-12-25T18:16:47.182Z,3.65
2022-12-25T18:19:18.750Z,3.60
2022-12-25T18:21:47.321Z,3.44
2022-12-25T18:24:15.938Z,3.53
2022-12-25T18:26:44.589Z,3.46
2022-12-25T18:29:12.883Z,3.45
2022-12-25T18:31:44.074Z,3.54
2022-12-25T18:34:12.627Z,3.51
2022-12-25T18:36:41.325Z,3.53
2022-12-25T18:39:11.750Z,3.51
2022-12-25T18:42:00.246Z,3.48
2022-12-25T18:44:30.517Z,3.38
2022-12-25T18:46:59.088Z,3.43
2022-12-25T18:49:27.340Z,3.42
2022-12-25T18:52:49.766Z,3.09
2022-12-25T18:54:45.581Z,3.05
2022-12-25T18:57:14.105Z,3.05
2022-12-25T18:59:42.757Z,3.09
2022-12-25T19:02:12.658Z,2.99
2022-12-25T19:04:43.957Z,2.94
2022-12-25T19:07:13.019Z,3.01
2022-12-25T19:09:41.491Z,2.97
2022-12-25T19:12:10.183Z,3.04
2022-12-25T19:14:48.073Z,2.94
2022-12-25T19:17:18.279Z,2.85
2022-12-25T19:19:47.033Z,3.00
2022-12-25T19:22:15.432Z,2.95
2022-12-25T19:24:44.261Z,2.90
2022-12-25T19:27:12.843Z,2.62
2022-12-25T19:29:41.257Z,2.76
2022-12-25T19:32:09.767Z,2.40
2022-12-25T19:34:38.723Z,2.45
2022-12-25T19:37:07.667Z,2.56
2022-12-25T19:39:35.962Z,2.59
2022-12-25T19:42:04.597Z,2.50
2022-12-25T19:44:33.146Z,2.50
2022-12-25T19:47:01.717Z,2.53
2022-12-25T19:49:30.175Z,2.58
2022-12-25T19:51:58.715Z,2.51
2022-12-25T19:54:29.803Z,2.55
2022-12-25T19:56:58.352Z,2.53
2022-12-25T19:59:26.737Z,2.55
2022-12-25T20:01:55.927Z,2.21
2022-12-25T20:04:24.453Z,2.21
2022-12-25T20:06:52.740Z,2.45
2022-12-25T20:09:21.907Z,2.48
2022-12-25T20:11:50.484Z,2.47
2022-12-25T20:14:19.916Z,2.45
2022-12-25T20:16:48.491Z,2.35
2022-12-25T20:19:17.028Z,2.27
2022-12-25T20:21:46.220Z,2.28
2022-12-25T20:24:14.752Z,2.32
2022-12-25T20:26:47.499Z,1.96
2022-12-25T20:29:16.713Z,2.24
2022-12-25T20:31:45.689Z,2.35
2022-12-25T20:34:14.120Z,2.21
2022-12-25T20:36:43.555Z,2.26
2022-12-25T20:39:12.447Z,2.30
2022-12-25T20:41:41.166Z,2.25
2022-12-25T20:44:10.603Z,1.89
2022-12-25T20:46:39.475Z,1.93
2022-12-25T20:49:08.113Z,2.03
2022-12-25T20:51:39.388Z,1.97
2022-12-25T20:54:10.137Z,2.06
2022-12-25T20:56:39.038Z,2.01
2022-12-25T20:59:07.432Z,2.02
2022-12-25T21:01:36.093Z,1.95
2022-12-25T21:04:04.773Z,1.49
2022-12-25T21:06:33.373Z,1.67
2022-12-25T21:09:01.953Z,1.69
2022-12-25T21:11:31.769Z,1.70
2022-12-25T21:14:00.392Z,1.46
2022-12-25T21:16:29.127Z,1.34
2022-12-25T21:18:59.169Z,1.45
2022-12-25T21:21:28.102Z,1.57
2022-12-25T21:23:57.690Z,1.47
2022-12-25T21:26:28.837Z,1.58
2022-12-25T21:29:00.630Z,1.58
2022-12-25T21:31:30.546Z,1.58
2022-12-25T21:33:59.729Z,1.20
2022-12-25T21:36:34.332Z,0.91
2022-12-25T21:39:06.187Z,1.05
2022-12-25T21:41:40.064Z,1.16
2022-12-25T21:44:09.419Z,1.09
2022-12-25T21:46:37.725Z,1.13
2022-12-25T21:49:06.551Z,1.15
2022-12-25T21:51:53.973Z,1.23
2022-12-25T21:54:23.507Z,1.18
2022-12-25T21:56:51.516Z,1.27
2022-12-25T21:59:21.625Z,1.28
2022-12-25T22:01:51.474Z,1.23
2022-12-25T22:04:22.601Z,1.33
2022-12-25T22:07:09.773Z,1.36
2022-12-25T22:09:37.917Z,1.31
2022-12-25T22:12:27.411Z,1.24
2022-12-25T22:15:03.159Z,1.31
2022-12-25T22:17:58.483Z,1.42
2022-12-25T22:20:34.948Z,1.40
2022-12-25T22:23:04.167Z,1.15
2022-12-25T22:25:32.275Z,1.20
2022-12-25T22:28:00.263Z,1.12
2022-12-25T22:30:29.499Z,1.22
2022-12-25T22:32:57.915Z,1.21
2022-12-25T22:35:26.148Z,1.24
2022-12-25T22:37:54.529Z,1.23
2022-12-25T22:40:22.604Z,1.21
2022-12-25T22:42:54.163Z,1.04
2022-12-25T22:45:22.728Z,1.04
2022-12-25T22:47:50.775Z,0.88
2022-12-25T22:50:19.113Z,0.91
2022-12-25T22:52:47.374Z,0.97
2022-12-25T22:55:19.382Z,0.80
2022-12-25T22:57:47.613Z,0.76
2022-12-25T23:00:15.634Z,0.76
2022-12-25T23:02:43.976Z,0.79
2022-12-25T23:05:12.059Z,0.79
2022-12-25T23:07:40.587Z,0.82
2022-12-25T23:10:09.289Z,0.74
2022-12-25T23:12:55.682Z,0.85
2022-12-25T23:15:23.865Z,0.61
2022-12-25T23:18:10.194Z,0.59
2022-12-25T23:20:56.836Z,0.68
2022-12-25T23:23:43.360Z,0.49
2022-12-25T23:26:11.998Z,0.64
2022-12-25T23:29:00.698Z,0.73
2022-12-25T23:31:36.780Z,0.80
2022-12-25T23:34:06.443Z,0.65
2022-12-25T23:36:35.116Z,0.47
2022-12-25T23:39:09.037Z,0.58
2022-12-25T23:41:39.747Z,0.66
2022-12-25T23:44:08.513Z,0.69
2022-12-25T23:46:37.360Z,0.58
2022-12-25T23:49:06.391Z,0.70
2022-12-25T23:51:40.066Z,0.59
2022-12-25T23:54:08.233Z,0.68
2022-12-25T23:56:37.022Z,0.71
2022-12-25T23:59:06.369Z,0.76
